Amargosa Valley, Nevada Weather observations

Data are for observation ending at time listed.
 Day   Time    Ave.   Ave.  Ave.  Vector   Max.   Stn.    Total    Solar   Ave.  
  of    of     Air    Rel.  Wind   Wind    Wind   Baro.  Precip.   Rad.    Soil  
Year   Day     Temp.  Hum.  Speed  Dir.    Gust   Pres.                    Temp. 
2015   (PST)    F      %     mph   deg.    mph     mb.     in.     W/m2     F   
------------------------------------------------------------------------------
  88   15:00   86.0     8    4.5   143     11.4   930.8    0.00     616    76.9
  88   15:10   86.7     8    7.6   167     13.2   930.7    0.00     585    77.2
  88   15:20   85.9     8    7.4   149     12.6   930.6    0.00     552    77.5
  88   15:30   86.0     8    6.5   153     14.0   930.5    0.00     516    77.8
  88   15:40   86.2     9    8.3   171     15.1   930.4    0.00     319    78.1
  88   15:50   85.9     8    7.7   191     12.6   930.3    0.00     262    78.4
  88   16:00   85.7     8    3.8   197      9.0   930.2    0.00     133    78.6
  88   16:10   85.8     8    3.3   151      6.4   929.9    0.00      52    78.9
  88   16:20   86.3     8    2.6   196      6.7   929.8    0.00      41    79.1
  88   16:30   85.9     8    5.2   178     10.8   929.7    0.00      38    79.2
  88   16:40   85.7     8    4.9   167     11.2   929.6    0.00      40    79.4
  88   16:50   85.7     8    6.5   180     10.7   929.6    0.00      43    79.5
  88   17:00   85.6     8    8.5   171     12.9   929.5    0.00      32    79.6
  88   17:10   85.2     8    6.7   158      9.9   929.5    0.00      30    79.6
  88   17:20   85.1     8    8.4   165     12.1   929.4    0.00      26    79.7
  88   17:30   84.6     8    7.3   181     11.1   929.4    0.00      20    79.8
  88   17:40   83.9     8    6.6   194      9.5   929.4    0.00      13    79.8
  88   17:50   82.6     8    6.5   188      9.2   929.4    0.00      10    79.8
  88   18:00   81.9     9    5.1   192      7.2   929.4    0.00       7    79.8
  88   18:10   80.7     9    4.0   195      5.6   929.4    0.00       3    79.8
  88   18:20   79.1     9    3.2   189      4.5   929.4    0.00       0    79.8
  88   18:30   77.5    10    2.2   185      3.1   929.4    0.00       0    79.8
  88   18:40   76.8    10    1.8   181      2.6   929.3    0.00       0    79.8
  88   18:50   75.9    10    2.6   187      4.1   929.3    0.00       0    79.8
  88   19:00   75.1    10    3.4   189      4.6   929.3    0.00       0    79.7
  88   19:10   74.7    10    2.5   184      3.7   929.4    0.00       0    79.7
  88   19:20   74.3    10    1.3   176      2.6   929.5    0.00       0    79.6
  88   19:30   74.9     9    0.8   142      1.5   929.5    0.00       0    79.5
  88   19:40   75.5     9    1.1   128      1.8   929.5    0.00       0    79.4
  88   19:50   75.5     9    0.7   136      1.7   929.6    0.00       0    79.3
  88   20:00   74.9     9    0.1   145      1.2   929.6    0.00       0    79.3
  88   20:10   71.7    10    0.0   140      0.7   929.6    0.00       0    79.2
  88   20:20   69.8    11    0.2   349      1.2   929.6    0.00       0    79.1
  88   20:30   66.6    12    0.5   342      2.0   929.7    0.00       0    79.0
  88   20:40   66.5    12    1.6    25      3.4   929.7    0.00       0    78.9
  88   20:50   65.7    13    2.3    31      4.1   929.7    0.00       0    78.8
  88   21:00   64.9    13    2.2    27      4.5   929.7    0.00       0    78.7
  88   21:10   63.8    14    1.7    21      4.0   929.7    0.00       0    78.5
  88   21:20   63.5    14    2.4    24      5.0   929.6    0.00       0    78.4
  88   21:30   63.8    14    2.8    31      4.8   929.7    0.00       0    78.3
  88   21:40   63.4    14    2.8    30      4.9   929.7    0.00       0    78.2
  88   21:50   63.3    14    2.6    28      5.5   929.8    0.00       0    78.0
  88   22:00   63.4    14    2.9    28      5.7   929.8    0.00       0    77.9
  88   22:10   63.2    14    1.8    23      4.2   929.8    0.00       0    77.8
  88   22:20   63.1    14    1.3    14      3.2   929.8    0.00       0    77.7
  88   22:30   63.0    14    1.5    20      4.1   929.8    0.00       0    77.5
  88   22:40   63.2    14    2.5    26      5.1   929.9    0.00       0    77.4
  88   22:50   62.7    15    2.3   321      7.5   929.9    0.00       0    77.3
  88   23:00   62.1    15    1.4   324      4.2   930.0    0.00       0    77.1
  88   23:10   61.1    16    0.4   338      2.3   930.1    0.00       0    77.0
  88   23:20   60.8    16    0.3   329      1.5   930.0    0.00       0    76.9
  88   23:30   60.4    17    0.3   337      1.2   930.0    0.00       0    76.7
  88   23:40   59.4    17    0.6   330      2.2   929.9    0.00       0    76.6
  88   23:50   59.3    17    0.3   335      1.7   929.9    0.00       0    76.5
  89    0:00   59.7    17    0.2   347      1.3   929.9    0.00       0    76.4
  89    0:10   59.9    17    0.1   344      1.2   929.9    0.00       0    76.2
  89    0:20   59.5    17    0.1   330      0.9   930.0    0.00       0    76.1
  89    0:30   58.9    17    0.3   339      1.6   930.0    0.00       0    76.0
  89    0:40   58.1    18    0.8   327      2.5   930.0    0.00       0    75.8
  89    0:50   58.0    18    0.5   335      2.5   930.0    0.00       0    75.7
  89    1:00   59.0    17    0.5   332      1.8   930.0    0.00       0    75.6
  89    1:10   59.1    17    0.8   339      2.0   930.0    0.00       0    75.5
  89    1:20   59.2    17    2.0   324      3.8   929.9    0.00       0    75.4
  89    1:30   58.9    17    2.1   326      4.1   929.8    0.00       0    75.2
  89    1:40   58.5    17    1.3   330      2.8   929.8    0.00       0    75.1
  89    1:50   57.8    18    1.0   330      2.7   929.8    0.00       0    74.9
  89    2:00   57.1    18    1.0   333      2.1   929.8    0.00       0    74.8
  89    2:10   56.4    19    1.0   332      2.2   929.8    0.00       0    74.7
  89    2:20   56.1    19    1.0   336      1.8   929.8    0.00       0    74.6
  89    2:30   56.1    19    0.8   330      2.3   929.8    0.00       0    74.5
  89    2:40   56.4    19    0.9   335      2.0   929.9    0.00       0    74.4
  89    2:50   56.0    20    0.7   336      1.9   930.0    0.00       0    74.2
  89    3:00   55.4    20    1.1   330      2.4   930.0    0.00       0    74.1
  89    3:10   55.2    20    1.0   324      2.5   930.1    0.00       0    74.0
  89    3:20   54.2    21    1.5   325      3.6   930.1    0.00       0    73.8
  89    3:30   54.5    20    1.4   320      3.4   930.1    0.00       0    73.7
  89    3:40   55.1    20    1.3   325      3.6   930.1    0.00       0    73.6
  89    3:50   53.8    21    1.7   325      3.4   930.1    0.00       0    73.5
  89    4:00   53.8    21    1.8   319      3.3   930.1    0.00       0    73.4
  89    4:10   53.6    21    1.2   322      2.9   930.1    0.00       0    73.3
  89    4:20   53.4    22    1.0   330      2.2   930.1    0.00       0    73.1
  89    4:30   53.4    22    0.8   334      2.0   930.1    0.00       0    73.0
  89    4:40   53.6    22    0.9   334      1.8   930.2    0.00       0    72.9
  89    4:50   55.1    20    1.0   331      2.2   930.3    0.00       0    72.8
  89    5:00   56.1    20    1.1   336      2.5   930.3    0.00       0    72.6
  89    5:10   55.6    20    0.5   344      1.5   930.4    0.00       0    72.5
  89    5:20   54.7    21    1.6   320      3.7   930.5    0.00       0    72.4
  89    5:30   54.4    22    0.8   330      3.6   930.6    0.00       0    72.3
  89    5:40   56.1    20    0.8   342      3.6   930.7    0.00       5    72.2
  89    5:50   56.1    21    0.8   341      3.7   930.9    0.00       9    72.1
  89    6:00   55.4    21    2.5   322      5.6   931.0    0.00      36    71.9
  89    6:10   55.3    21    1.7   325      5.5   931.2    0.00      65    71.8
  89    6:20   56.3    21    2.2   319      3.6   931.3    0.00     101    71.7
  89    6:30   57.2    20    2.1   319      4.0   931.4    0.00     136    71.5
  89    6:40   58.6    20    1.1   323      2.1   931.5    0.00     168    71.4
  89    6:50   59.7    20    1.6   321      3.5   931.6    0.00     202    71.3
  89    7:00   61.3    19    1.7   320      3.5   931.7    0.00     237    71.2
  89    7:10   62.4    18    2.2   316      4.2   931.8    0.00     268    71.0
  89    7:20   63.8    17    1.9   319      3.9   932.0    0.00     301    70.9
  89    7:30   65.4    17    1.5   325      4.7   932.1    0.00     345    70.8
  89    7:40   67.2    15    1.5    20      3.9   932.3    0.00     383    70.7
  89    7:50   68.1    15    1.8    29      4.2   932.5    0.00     420    70.7
  89    8:00   69.3    14    1.6    39      4.8   932.6    0.00     456    70.6
  89    8:10   69.9    14    1.6    31      3.4   932.7    0.00     490    70.5
  89    8:20   71.1    13    1.0    20      2.4   932.8    0.00     522    70.5
  89    8:30   72.4    13    0.7    24      3.3   932.9    0.00     551    70.4
  89    8:40   74.1    12    0.7     9      2.8   933.0    0.00     546    70.3
  89    8:50   74.9    12    1.6   317      5.5   933.1    0.00     577    70.3
  89    9:00   74.1    12    1.9   296      4.6   933.2    0.00     639    70.2
  89    9:10   74.9    12    1.0   212      2.9   933.2    0.00     666    70.2
  89    9:20   76.2    12    1.1   210      3.4   933.2    0.00     684    70.1
  89    9:30   77.0    12    0.9   208      2.6   933.2    0.00     333    70.1
  89    9:40   77.4    11    1.5   242      3.9   933.3    0.00     356    70.1
  89    9:50   77.6    11    1.8   229      6.1   933.2    0.00     466    70.1
  89   10:00   79.1    11    1.4   250      3.7   933.1    0.00     345    70.2
  89   10:10   78.9    10    2.2   232      4.1   933.0    0.00     803    70.3
  89   10:20   79.8    10    1.9   227      4.2   932.9    0.00     820    70.4
  89   10:30   81.1    10    2.8   140      6.4   932.8    0.00     838    70.5
  89   10:40   81.1    10    3.4   199      6.1   932.8    0.00     851    70.5
  89   10:50   81.5    10    2.6   210      5.7   932.8    0.00     864    70.6
  89   11:00   82.9    10    3.0   181      6.4   932.7    0.00     873    70.7
  89   11:10   82.7    10    2.7   166      5.2   932.6    0.00     883    70.8
  89   11:20   83.4     9    3.3   171      8.2   932.5    0.00     891    70.9
  89   11:30   83.4    10    4.0   163      8.1   932.4    0.00     897    71.0
  89   11:40   84.0     9    4.4   165      8.8   932.3    0.00     900    71.1
  89   11:50   84.6     9    3.8   146      9.1   932.2    0.00     903    71.2
  89   12:00   84.7     9    4.7   142      8.9   932.2    0.00     903    71.4
  89   12:10   84.5     9    4.7   145     11.8   932.1    0.00     902    71.6
  89   12:20   85.4     9    4.9   160     12.1   932.0    0.00     895    71.8
  89   12:30   85.8     9    4.5   162     12.6   931.8    0.00     892    72.0
  89   12:40   85.7     9    5.1   182      7.8   931.7    0.00     886    72.3
  89   12:50   86.3     8    3.0   223      9.9   931.5    0.00     877    72.6
  89   13:00   86.6     8    5.0   191     11.1   931.4    0.00     866    72.9
  89   13:10   86.3     8    5.1   217      9.1   931.2    0.00     853    73.2
  89   13:20   86.6     8    2.9   190      9.6   931.0    0.00     840    73.5
  89   13:30   86.8     8    6.0   196     13.4   930.9    0.00     824    73.9
  89   13:40   86.4     8    7.3   167     13.6   930.8    0.00     808    74.2
  89   13:50   86.2     8    6.0   138     17.9   930.6    0.00     791    74.6
  89   14:00   86.7     8    7.6   181     15.1   930.4    0.00     749    75.0
  89   14:10   86.7     8    6.9   194     14.0   930.3    0.00     678    75.4
  89   14:20   86.5     8    6.4   187     11.3   930.1    0.00     673    75.7
  89   14:30   86.3     9    7.1   169     12.9   930.0    0.00     680    76.1
  89   14:40   86.6     8    5.1   163     12.1   929.9    0.00     674    76.5
  89   14:50   86.7     8    5.6   161     11.2   929.8    0.00     646    76.8

Return to Amargosa Valley, Nevada graphs page.


Western Regional Climate Center,wrcc@dri.edu